FOC weather

Fuzhou Changle International Airport
Fuzhou, Fujian Province, China

Public forecast

Using degrees Celsius for public forecast. Weather courtesy of forecast.io.

METAR (pilot weather report)

Retrieved 2019/07/16 08:00 UTC (9 minutes ago):

ZSFZ 160800Z 06006MPS 9000 BKN006 29/25 Q1005 NOSIG

TAF (pilot weather forecast)

Retrieved 2019/07/16 06:00 UTC (2 hours ago):

TAF ZSFZ 160311Z 1606/1706 03004MPS 5000 BR BKN015 TX31/1606Z TN27/1621Z TEMPO 1606/1610 BKN011 FEW025CB BECMG 1700/1701 03009G14MPS